sensor_id;sensor_type;location;lat;lon;timestamp;P1;durP1;ratioP1;P2;durP2;ratioP2
6941;SDS011;3510;43.200;27.920;2023-04-04T00:00:21;7.57;;;3.50;;
6941;SDS011;3510;43.200;27.920;2023-04-04T00:02:48;6.60;;;3.85;;
6941;SDS011;3510;43.200;27.920;2023-04-04T00:05:15;8.57;;;2.63;;
6941;SDS011;3510;43.200;27.920;2023-04-04T00:24:54;2.50;;;1.63;;
6941;SDS011;3510;43.200;27.920;2023-04-04T01:06:34;4.40;;;2.97;;
6941;SDS011;3510;43.200;27.920;2023-04-04T01:09:01;3.73;;;2.93;;
6941;SDS011;3510;43.200;27.920;2023-04-04T01:11:28;4.38;;;3.20;;
6941;SDS011;3510;43.200;27.920;2023-04-04T01:13:55;2.73;;;2.47;;
6941;SDS011;3510;43.200;27.920;2023-04-04T01:16:22;2.70;;;2.50;;
6941;SDS011;3510;43.200;27.920;2023-04-04T01:18:49;3.43;;;2.90;;
6941;SDS011;3510;43.200;27.920;2023-04-04T01:21:19;2.17;;;2.00;;
6941;SDS011;3510;43.200;27.920;2023-04-04T01:28:51;9.60;;;3.33;;
6941;SDS011;3510;43.200;27.920;2023-04-04T01:31:19;7.77;;;2.70;;
6941;SDS011;3510;43.200;27.920;2023-04-04T01:33:50;4.27;;;2.60;;
6941;SDS011;3510;43.200;27.920;2023-04-04T01:36:22;5.30;;;3.10;;
6941;SDS011;3510;43.200;27.920;2023-04-04T01:38:57;2.20;;;1.93;;
6941;SDS011;3510;43.200;27.920;2023-04-04T01:41:31;3.87;;;3.57;;
6941;SDS011;3510;43.200;27.920;2023-04-04T01:43:59;6.63;;;2.53;;
6941;SDS011;3510;43.200;27.920;2023-04-04T01:46:26;4.87;;;3.00;;
6941;SDS011;3510;43.200;27.920;2023-04-04T01:48:53;6.60;;;3.20;;
6941;SDS011;3510;43.200;27.920;2023-04-04T01:56:13;4.07;;;3.50;;
6941;SDS011;3510;43.200;27.920;2023-04-04T01:58:41;4.90;;;3.33;;
6941;SDS011;3510;43.200;27.920;2023-04-04T02:15:50;2.93;;;2.63;;
6941;SDS011;3510;43.200;27.920;2023-04-04T02:18:17;4.43;;;4.03;;
6941;SDS011;3510;43.200;27.920;2023-04-04T02:20:44;5.13;;;3.73;;
6941;SDS011;3510;43.200;27.920;2023-04-04T02:23:15;4.10;;;3.70;;
6941;SDS011;3510;43.200;27.920;2023-04-04T02:25:42;7.97;;;4.73;;
6941;SDS011;3510;43.200;27.920;2023-04-04T02:28:09;4.80;;;4.33;;
6941;SDS011;3510;43.200;27.920;2023-04-04T02:30:36;8.10;;;4.67;;
6941;SDS011;3510;43.200;27.920;2023-04-04T02:33:04;4.20;;;3.50;;
6941;SDS011;3510;43.200;27.920;2023-04-04T02:35:31;4.90;;;4.50;;
6941;SDS011;3510;43.200;27.920;2023-04-04T02:37:58;5.60;;;4.77;;
6941;SDS011;3510;43.200;27.920;2023-04-04T02:40:24;7.10;;;3.63;;
6941;SDS011;3510;43.200;27.920;2023-04-04T02:42:51;4.73;;;4.33;;
6941;SDS011;3510;43.200;27.920;2023-04-04T02:45:18;6.87;;;4.00;;
6941;SDS011;3510;43.200;27.920;2023-04-04T02:47:48;5.13;;;3.60;;
6941;SDS011;3510;43.200;27.920;2023-04-04T02:50:17;4.27;;;3.60;;
6941;SDS011;3510;43.200;27.920;2023-04-04T02:52:43;2.93;;;2.73;;
6941;SDS011;3510;43.200;27.920;2023-04-04T02:55:10;6.40;;;4.50;;
6941;SDS011;3510;43.200;27.920;2023-04-04T02:57:37;6.13;;;3.83;;
6941;SDS011;3510;43.200;27.920;2023-04-04T03:00:04;6.67;;;3.33;;
6941;SDS011;3510;43.200;27.920;2023-04-04T03:02:32;3.63;;;3.43;;
6941;SDS011;3510;43.200;27.920;2023-04-04T03:04:59;7.30;;;4.30;;
6941;SDS011;3510;43.200;27.920;2023-04-04T03:07:27;6.90;;;4.57;;
6941;SDS011;3510;43.200;27.920;2023-04-04T03:09:53;3.97;;;3.50;;
6941;SDS011;3510;43.200;27.920;2023-04-04T03:12:20;4.00;;;3.67;;
6941;SDS011;3510;43.200;27.920;2023-04-04T03:14:47;6.83;;;4.07;;
6941;SDS011;3510;43.200;27.920;2023-04-04T03:17:13;4.17;;;3.77;;
6941;SDS011;3510;43.200;27.920;2023-04-04T03:19:42;7.03;;;4.07;;
6941;SDS011;3510;43.200;27.920;2023-04-04T03:22:22;4.47;;;4.07;;
6941;SDS011;3510;43.200;27.920;2023-04-04T03:24:50;4.90;;;4.07;;
6941;SDS011;3510;43.200;27.920;2023-04-04T03:27:17;7.80;;;4.23;;
6941;SDS011;3510;43.200;27.920;2023-04-04T03:29:45;4.20;;;3.90;;
6941;SDS011;3510;43.200;27.920;2023-04-04T03:32:12;6.30;;;4.60;;
6941;SDS011;3510;43.200;27.920;2023-04-04T03:34:38;10.37;;;4.33;;
6941;SDS011;3510;43.200;27.920;2023-04-04T03:37:05;7.23;;;5.40;;
6941;SDS011;3510;43.200;27.920;2023-04-04T03:39:32;6.20;;;4.37;;
6941;SDS011;3510;43.200;27.920;2023-04-04T03:42:00;4.63;;;3.63;;
6941;SDS011;3510;43.200;27.920;2023-04-04T03:44:26;4.53;;;4.13;;
6941;SDS011;3510;43.200;27.920;2023-04-04T03:46:56;9.40;;;5.63;;
6941;SDS011;3510;43.200;27.920;2023-04-04T03:49:23;7.13;;;5.13;;
6941;SDS011;3510;43.200;27.920;2023-04-04T03:51:50;6.90;;;4.63;;
6941;SDS011;3510;43.200;27.920;2023-04-04T03:54:16;9.03;;;4.07;;
6941;SDS011;3510;43.200;27.920;2023-04-04T03:56:43;8.33;;;5.00;;
6941;SDS011;3510;43.200;27.920;2023-04-04T03:59:11;5.40;;;4.90;;
6941;SDS011;3510;43.200;27.920;2023-04-04T04:01:38;6.53;;;4.43;;
6941;SDS011;3510;43.200;27.920;2023-04-04T04:04:05;4.80;;;4.23;;
6941;SDS011;3510;43.200;27.920;2023-04-04T04:06:32;4.43;;;3.67;;
6941;SDS011;3510;43.200;27.920;2023-04-04T04:08:58;8.33;;;5.53;;
6941;SDS011;3510;43.200;27.920;2023-04-04T04:11:26;5.67;;;5.07;;
6941;SDS011;3510;43.200;27.920;2023-04-04T04:13:53;4.53;;;3.83;;
6941;SDS011;3510;43.200;27.920;2023-04-04T04:16:22;6.23;;;4.40;;
6941;SDS011;3510;43.200;27.920;2023-04-04T04:18:48;7.70;;;4.27;;
6941;SDS011;3510;43.200;27.920;2023-04-04T04:21:15;8.57;;;5.27;;
6941;SDS011;3510;43.200;27.920;2023-04-04T04:23:42;9.53;;;4.63;;
6941;SDS011;3510;43.200;27.920;2023-04-04T04:26:08;5.10;;;3.87;;
6941;SDS011;3510;43.200;27.920;2023-04-04T04:28:35;7.93;;;5.37;;
6941;SDS011;3510;43.200;27.920;2023-04-04T04:31:03;6.80;;;4.97;;
6941;SDS011;3510;43.200;27.920;2023-04-04T04:33:33;4.80;;;4.43;;
6941;SDS011;3510;43.200;27.920;2023-04-04T04:36:00;5.37;;;4.83;;
6941;SDS011;3510;43.200;27.920;2023-04-04T04:38:27;6.50;;;5.93;;
6941;SDS011;3510;43.200;27.920;2023-04-04T04:40:54;7.17;;;4.77;;
6941;SDS011;3510;43.200;27.920;2023-04-04T04:43:21;4.90;;;4.50;;
6941;SDS011;3510;43.200;27.920;2023-04-04T04:45:48;4.37;;;3.70;;
6941;SDS011;3510;43.200;27.920;2023-04-04T04:48:15;4.97;;;4.57;;
6941;SDS011;3510;43.200;27.920;2023-04-04T04:50:45;7.33;;;5.30;;
6941;SDS011;3510;43.200;27.920;2023-04-04T04:53:12;5.33;;;4.77;;
6941;SDS011;3510;43.200;27.920;2023-04-04T04:55:53;6.27;;;5.77;;
6941;SDS011;3510;43.200;27.920;2023-04-04T04:58:19;6.60;;;5.90;;
6941;SDS011;3510;43.200;27.920;2023-04-04T05:00:48;8.17;;;5.37;;
6941;SDS011;3510;43.200;27.920;2023-04-04T05:03:14;7.13;;;5.30;;
6941;SDS011;3510;43.200;27.920;2023-04-04T05:05:41;11.17;;;6.80;;
6941;SDS011;3510;43.200;27.920;2023-04-04T05:08:22;10.50;;;6.13;;
6941;SDS011;3510;43.200;27.920;2023-04-04T05:10:50;8.83;;;4.67;;
6941;SDS011;3510;43.200;27.920;2023-04-04T05:13:19;9.20;;;4.70;;
6941;SDS011;3510;43.200;27.920;2023-04-04T05:15:45;13.10;;;4.90;;
6941;SDS011;3510;43.200;27.920;2023-04-04T05:18:13;12.53;;;5.27;;
6941;SDS011;3510;43.200;27.920;2023-04-04T05:20:40;14.70;;;5.90;;
6941;SDS011;3510;43.200;27.920;2023-04-04T05:23:07;6.80;;;5.07;;
6941;SDS011;3510;43.200;27.920;2023-04-04T05:25:49;12.47;;;4.90;;
6941;SDS011;3510;43.200;27.920;2023-04-04T05:28:17;4.77;;;4.27;;
6941;SDS011;3510;43.200;27.920;2023-04-04T05:30:44;7.50;;;5.23;;
6941;SDS011;3510;43.200;27.920;2023-04-04T05:33:12;7.50;;;4.87;;
6941;SDS011;3510;43.200;27.920;2023-04-04T05:35:47;6.93;;;3.70;;
6941;SDS011;3510;43.200;27.920;2023-04-04T05:38:14;8.43;;;3.83;;
6941;SDS011;3510;43.200;27.920;2023-04-04T05:40:41;6.00;;;4.50;;
6941;SDS011;3510;43.200;27.920;2023-04-04T05:43:10;12.60;;;3.57;;
6941;SDS011;3510;43.200;27.920;2023-04-04T05:45:39;17.13;;;5.17;;
6941;SDS011;3510;43.200;27.920;2023-04-04T05:48:06;4.40;;;4.00;;
6941;SDS011;3510;43.200;27.920;2023-04-04T05:50:33;6.40;;;3.93;;
6941;SDS011;3510;43.200;27.920;2023-04-04T05:53:00;9.70;;;4.20;;
6941;SDS011;3510;43.200;27.920;2023-04-04T05:55:41;14.77;;;6.00;;
6941;SDS011;3510;43.200;27.920;2023-04-04T05:58:08;9.13;;;4.60;;
6941;SDS011;3510;43.200;27.920;2023-04-04T06:00:39;14.40;;;5.03;;
6941;SDS011;3510;43.200;27.920;2023-04-04T06:03:06;7.27;;;4.17;;
6941;SDS011;3510;43.200;27.920;2023-04-04T06:05:34;12.37;;;4.80;;
6941;SDS011;3510;43.200;27.920;2023-04-04T06:08:01;4.33;;;3.77;;
6941;SDS011;3510;43.200;27.920;2023-04-04T06:10:35;7.60;;;4.03;;
6941;SDS011;3510;43.200;27.920;2023-04-04T06:13:02;10.27;;;5.23;;
6941;SDS011;3510;43.200;27.920;2023-04-04T06:15:32;8.70;;;3.83;;
6941;SDS011;3510;43.200;27.920;2023-04-04T06:18:00;8.23;;;4.10;;
6941;SDS011;3510;43.200;27.920;2023-04-04T06:20:26;5.20;;;4.67;;
6941;SDS011;3510;43.200;27.920;2023-04-04T06:22:57;7.83;;;3.70;;
6941;SDS011;3510;43.200;27.920;2023-04-04T06:25:34;14.67;;;5.27;;
6941;SDS011;3510;43.200;27.920;2023-04-04T06:28:02;15.43;;;5.20;;
6941;SDS011;3510;43.200;27.920;2023-04-04T06:30:34;4.07;;;3.70;;
6941;SDS011;3510;43.200;27.920;2023-04-04T06:33:03;13.67;;;4.77;;
6941;SDS011;3510;43.200;27.920;2023-04-04T06:35:31;5.60;;;3.57;;
6941;SDS011;3510;43.200;27.920;2023-04-04T06:37:58;11.90;;;4.43;;
6941;SDS011;3510;43.200;27.920;2023-04-04T06:40:41;7.77;;;4.30;;
6941;SDS011;3510;43.200;27.920;2023-04-04T06:43:08;7.37;;;3.57;;
6941;SDS011;3510;43.200;27.920;2023-04-04T06:45:49;6.53;;;4.60;;
6941;SDS011;3510;43.200;27.920;2023-04-04T06:51:19;6.93;;;4.17;;
6941;SDS011;3510;43.200;27.920;2023-04-04T06:53:50;7.63;;;4.10;;
6941;SDS011;3510;43.200;27.920;2023-04-04T07:20:22;12.33;;;5.33;;
6941;SDS011;3510;43.200;27.920;2023-04-04T07:22:51;14.63;;;3.57;;
6941;SDS011;3510;43.200;27.920;2023-04-04T07:25:31;5.30;;;4.30;;
6941;SDS011;3510;43.200;27.920;2023-04-04T07:27:58;9.27;;;5.00;;
6941;SDS011;3510;43.200;27.920;2023-04-04T07:30:38;8.07;;;5.53;;
6941;SDS011;3510;43.200;27.920;2023-04-04T07:33:07;8.47;;;4.93;;
6941;SDS011;3510;43.200;27.920;2023-04-04T07:35:33;8.10;;;4.60;;
6941;SDS011;3510;43.200;27.920;2023-04-04T07:38:00;8.73;;;5.00;;
6941;SDS011;3510;43.200;27.920;2023-04-04T07:40:28;5.73;;;3.77;;
6941;SDS011;3510;43.200;27.920;2023-04-04T07:42:55;15.47;;;4.80;;
6941;SDS011;3510;43.200;27.920;2023-04-04T07:45:23;8.10;;;5.53;;
6941;SDS011;3510;43.200;27.920;2023-04-04T07:47:49;9.10;;;4.40;;
6941;SDS011;3510;43.200;27.920;2023-04-04T07:50:23;14.83;;;5.07;;
6941;SDS011;3510;43.200;27.920;2023-04-04T07:52:50;11.67;;;4.23;;
6941;SDS011;3510;43.200;27.920;2023-04-04T07:55:34;7.83;;;4.50;;
6941;SDS011;3510;43.200;27.920;2023-04-04T07:58:00;10.63;;;5.07;;
6941;SDS011;3510;43.200;27.920;2023-04-04T08:00:27;11.60;;;5.13;;
6941;SDS011;3510;43.200;27.920;2023-04-04T08:02:57;10.93;;;5.57;;
6941;SDS011;3510;43.200;27.920;2023-04-04T08:05:27;11.23;;;5.07;;
6941;SDS011;3510;43.200;27.920;2023-04-04T08:07:54;10.13;;;4.67;;
6941;SDS011;3510;43.200;27.920;2023-04-04T08:10:36;9.33;;;5.30;;
6941;SDS011;3510;43.200;27.920;2023-04-04T08:13:16;5.80;;;4.60;;
6941;SDS011;3510;43.200;27.920;2023-04-04T08:15:57;8.77;;;4.73;;
6941;SDS011;3510;43.200;27.920;2023-04-04T08:18:38;15.57;;;5.77;;
6941;SDS011;3510;43.200;27.920;2023-04-04T08:30:52;7.23;;;4.23;;
6941;SDS011;3510;43.200;27.920;2023-04-04T08:33:19;9.33;;;4.50;;
6941;SDS011;3510;43.200;27.920;2023-04-04T08:35:46;11.20;;;5.27;;
6941;SDS011;3510;43.200;27.920;2023-04-04T08:38:13;16.73;;;5.77;;
6941;SDS011;3510;43.200;27.920;2023-04-04T08:40:40;12.03;;;5.37;;
6941;SDS011;3510;43.200;27.920;2023-04-04T08:43:06;11.80;;;5.23;;
6941;SDS011;3510;43.200;27.920;2023-04-04T08:45:33;16.20;;;5.37;;
6941;SDS011;3510;43.200;27.920;2023-04-04T08:54:24;15.67;;;5.97;;
6941;SDS011;3510;43.200;27.920;2023-04-04T08:56:54;21.53;;;6.60;;
6941;SDS011;3510;43.200;27.920;2023-04-04T08:59:21;12.77;;;5.40;;
6941;SDS011;3510;43.200;27.920;2023-04-04T09:01:48;22.10;;;6.13;;
6941;SDS011;3510;43.200;27.920;2023-04-04T09:04:18;17.13;;;5.67;;
6941;SDS011;3510;43.200;27.920;2023-04-04T09:06:46;13.80;;;6.00;;
6941;SDS011;3510;43.200;27.920;2023-04-04T09:09:13;11.77;;;5.23;;
6941;SDS011;3510;43.200;27.920;2023-04-04T09:11:43;11.63;;;5.37;;
6941;SDS011;3510;43.200;27.920;2023-04-04T09:14:12;30.23;;;6.03;;
6941;SDS011;3510;43.200;27.920;2023-04-04T09:16:40;13.53;;;5.17;;
6941;SDS011;3510;43.200;27.920;2023-04-04T09:19:07;19.00;;;6.07;;
6941;SDS011;3510;43.200;27.920;2023-04-04T09:21:34;19.73;;;6.13;;
6941;SDS011;3510;43.200;27.920;2023-04-04T09:24:03;20.23;;;7.47;;
6941;SDS011;3510;43.200;27.920;2023-04-04T09:29:28;21.03;;;5.60;;
6941;SDS011;3510;43.200;27.920;2023-04-04T09:31:55;16.03;;;5.50;;
6941;SDS011;3510;43.200;27.920;2023-04-04T09:34:22;19.07;;;6.00;;
6941;SDS011;3510;43.200;27.920;2023-04-04T09:36:49;14.43;;;6.10;;
6941;SDS011;3510;43.200;27.920;2023-04-04T09:39:15;18.20;;;5.73;;
6941;SDS011;3510;43.200;27.920;2023-04-04T09:41:42;19.00;;;5.70;;
6941;SDS011;3510;43.200;27.920;2023-04-04T09:44:10;13.47;;;4.93;;
6941;SDS011;3510;43.200;27.920;2023-04-04T09:46:39;16.90;;;6.27;;
6941;SDS011;3510;43.200;27.920;2023-04-04T09:49:08;13.83;;;5.17;;
6941;SDS011;3510;43.200;27.920;2023-04-04T09:51:37;25.07;;;5.87;;
6941;SDS011;3510;43.200;27.920;2023-04-04T09:54:05;16.87;;;7.33;;
6941;SDS011;3510;43.200;27.920;2023-04-04T09:56:35;18.57;;;5.83;;
6941;SDS011;3510;43.200;27.920;2023-04-04T09:59:04;20.60;;;6.80;;
6941;SDS011;3510;43.200;27.920;2023-04-04T10:01:31;13.30;;;6.10;;
6941;SDS011;3510;43.200;27.920;2023-04-04T10:04:00;22.57;;;7.37;;
6941;SDS011;3510;43.200;27.920;2023-04-04T10:06:30;16.20;;;5.43;;
6941;SDS011;3510;43.200;27.920;2023-04-04T10:08:57;22.33;;;5.50;;
6941;SDS011;3510;43.200;27.920;2023-04-04T10:11:27;18.50;;;6.43;;
6941;SDS011;3510;43.200;27.920;2023-04-04T10:13:56;21.80;;;5.30;;
6941;SDS011;3510;43.200;27.920;2023-04-04T10:16:23;18.47;;;5.97;;
6941;SDS011;3510;43.200;27.920;2023-04-04T10:18:51;19.77;;;6.57;;
6941;SDS011;3510;43.200;27.920;2023-04-04T10:21:19;13.03;;;6.03;;
6941;SDS011;3510;43.200;27.920;2023-04-04T10:23:48;24.03;;;5.80;;
6941;SDS011;3510;43.200;27.920;2023-04-04T10:26:17;23.90;;;7.00;;
6941;SDS011;3510;43.200;27.920;2023-04-04T10:28:43;12.70;;;5.77;;
6941;SDS011;3510;43.200;27.920;2023-04-04T10:31:14;21.17;;;6.20;;
6941;SDS011;3510;43.200;27.920;2023-04-04T10:33:46;16.80;;;6.13;;
6941;SDS011;3510;43.200;27.920;2023-04-04T10:38:56;26.43;;;6.73;;
6941;SDS011;3510;43.200;27.920;2023-04-04T10:41:29;26.13;;;7.80;;
6941;SDS011;3510;43.200;27.920;2023-04-04T10:43:59;17.73;;;6.37;;
6941;SDS011;3510;43.200;27.920;2023-04-04T10:46:38;25.70;;;7.47;;
6941;SDS011;3510;43.200;27.920;2023-04-04T10:49:08;24.80;;;7.77;;
6941;SDS011;3510;43.200;27.920;2023-04-04T10:51:36;23.23;;;7.27;;
6941;SDS011;3510;43.200;27.920;2023-04-04T10:54:07;23.93;;;6.57;;
6941;SDS011;3510;43.200;27.920;2023-04-04T11:01:54;32.13;;;6.90;;
6941;SDS011;3510;43.200;27.920;2023-04-04T11:04:28;21.13;;;6.10;;
6941;SDS011;3510;43.200;27.920;2023-04-04T11:09:59;23.90;;;6.90;;
6941;SDS011;3510;43.200;27.920;2023-04-04T11:12:27;26.80;;;6.20;;
6941;SDS011;3510;43.200;27.920;2023-04-04T11:23:05;22.77;;;5.87;;
6941;SDS011;3510;43.200;27.920;2023-04-04T11:28:27;15.93;;;5.03;;
6941;SDS011;3510;43.200;27.920;2023-04-04T11:31:22;23.67;;;5.67;;
6941;SDS011;3510;43.200;27.920;2023-04-04T11:44:21;15.63;;;5.77;;
6941;SDS011;3510;43.200;27.920;2023-04-04T11:46:53;26.30;;;6.43;;
6941;SDS011;3510;43.200;27.920;2023-04-04T11:49:25;21.53;;;6.60;;
6941;SDS011;3510;43.200;27.920;2023-04-04T11:51:54;17.77;;;5.93;;
6941;SDS011;3510;43.200;27.920;2023-04-04T11:56:58;18.15;;;6.30;;
6941;SDS011;3510;43.200;27.920;2023-04-04T12:02:08;21.77;;;6.37;;
6941;SDS011;3510;43.200;27.920;2023-04-04T12:04:36;22.50;;;7.17;;
6941;SDS011;3510;43.200;27.920;2023-04-04T12:07:05;20.00;;;6.60;;
6941;SDS011;3510;43.200;27.920;2023-04-04T12:09:34;17.50;;;7.07;;
6941;SDS011;3510;43.200;27.920;2023-04-04T12:12:02;22.20;;;6.40;;
6941;SDS011;3510;43.200;27.920;2023-04-04T12:14:31;23.67;;;6.63;;
6941;SDS011;3510;43.200;27.920;2023-04-04T12:25:15;16.93;;;5.50;;
6941;SDS011;3510;43.200;27.920;2023-04-04T12:27:43;26.13;;;7.18;;
6941;SDS011;3510;43.200;27.920;2023-04-04T12:30:11;25.90;;;6.90;;
6941;SDS011;3510;43.200;27.920;2023-04-04T12:32:41;26.33;;;7.43;;
6941;SDS011;3510;43.200;27.920;2023-04-04T12:35:09;25.65;;;6.32;;
6941;SDS011;3510;43.200;27.920;2023-04-04T12:37:37;22.20;;;7.20;;
6941;SDS011;3510;43.200;27.920;2023-04-04T12:47:53;26.05;;;7.32;;
6941;SDS011;3510;43.200;27.920;2023-04-04T12:50:22;28.25;;;6.97;;
6941;SDS011;3510;43.200;27.920;2023-04-04T12:52:55;25.33;;;7.77;;
6941;SDS011;3510;43.200;27.920;2023-04-04T12:55:29;22.92;;;6.55;;
6941;SDS011;3510;43.200;27.920;2023-04-04T12:57:59;20.77;;;7.20;;
6941;SDS011;3510;43.200;27.920;2023-04-04T13:00:26;19.73;;;6.20;;
6941;SDS011;3510;43.200;27.920;2023-04-04T13:15:57;22.08;;;7.03;;
6941;SDS011;3510;43.200;27.920;2023-04-04T13:18:30;24.88;;;6.53;;
6941;SDS011;3510;43.200;27.920;2023-04-04T13:21:01;25.52;;;7.32;;
6941;SDS011;3510;43.200;27.920;2023-04-04T13:28:41;23.92;;;6.88;;
6941;SDS011;3510;43.200;27.920;2023-04-04T13:31:08;25.10;;;6.77;;
6941;SDS011;3510;43.200;27.920;2023-04-04T13:36:20;23.83;;;7.27;;
6941;SDS011;3510;43.200;27.920;2023-04-04T13:38:47;24.23;;;7.75;;
6941;SDS011;3510;43.200;27.920;2023-04-04T13:41:21;39.53;;;8.63;;
6941;SDS011;3510;43.200;27.920;2023-04-04T13:54:10;27.43;;;6.10;;
6941;SDS011;3510;43.200;27.920;2023-04-04T13:59:19;22.17;;;6.13;;
6941;SDS011;3510;43.200;27.920;2023-04-04T14:12:08;25.23;;;6.10;;
6941;SDS011;3510;43.200;27.920;2023-04-04T14:14:35;25.30;;;7.03;;
6941;SDS011;3510;43.200;27.920;2023-04-04T14:33:39;35.13;;;8.70;;
6941;SDS011;3510;43.200;27.920;2023-04-04T14:36:06;28.42;;;8.60;;
6941;SDS011;3510;43.200;27.920;2023-04-04T14:38:33;36.00;;;9.48;;
6941;SDS011;3510;43.200;27.920;2023-04-04T14:55:53;35.35;;;8.38;;
6941;SDS011;3510;43.200;27.920;2023-04-04T14:58:29;36.72;;;10.13;;
6941;SDS011;3510;43.200;27.920;2023-04-04T15:00:56;29.13;;;8.57;;
6941;SDS011;3510;43.200;27.920;2023-04-04T15:03:26;35.08;;;9.93;;
6941;SDS011;3510;43.200;27.920;2023-04-04T15:05:53;27.33;;;8.73;;
6941;SDS011;3510;43.200;27.920;2023-04-04T15:08:20;42.77;;;8.43;;
6941;SDS011;3510;43.200;27.920;2023-04-04T15:10:48;28.77;;;8.23;;
6941;SDS011;3510;43.200;27.920;2023-04-04T15:13:20;33.93;;;8.13;;
6941;SDS011;3510;43.200;27.920;2023-04-04T15:15:47;31.88;;;9.30;;
6941;SDS011;3510;43.200;27.920;2023-04-04T15:18:14;29.25;;;9.25;;
6941;SDS011;3510;43.200;27.920;2023-04-04T15:20:42;27.20;;;8.77;;
6941;SDS011;3510;43.200;27.920;2023-04-04T15:23:09;33.53;;;8.63;;
6941;SDS011;3510;43.200;27.920;2023-04-04T15:25:36;32.10;;;9.55;;
6941;SDS011;3510;43.200;27.920;2023-04-04T15:28:03;25.85;;;8.40;;
6941;SDS011;3510;43.200;27.920;2023-04-04T15:50:16;19.23;;;6.20;;
6941;SDS011;3510;43.200;27.920;2023-04-04T15:52:44;22.60;;;8.30;;
6941;SDS011;3510;43.200;27.920;2023-04-04T15:55:22;23.97;;;9.03;;
6941;SDS011;3510;43.200;27.920;2023-04-04T15:57:49;23.37;;;9.07;;
6941;SDS011;3510;43.200;27.920;2023-04-04T16:00:16;23.37;;;9.13;;
6941;SDS011;3510;43.200;27.920;2023-04-04T16:02:44;21.50;;;7.67;;
6941;SDS011;3510;43.200;27.920;2023-04-04T16:05:13;21.70;;;7.00;;
6941;SDS011;3510;43.200;27.920;2023-04-04T16:07:41;18.83;;;8.20;;
6941;SDS011;3510;43.200;27.920;2023-04-04T16:10:23;31.40;;;8.37;;
6941;SDS011;3510;43.200;27.920;2023-04-04T16:12:50;23.97;;;8.17;;
6941;SDS011;3510;43.200;27.920;2023-04-04T16:15:17;21.13;;;7.83;;
6941;SDS011;3510;43.200;27.920;2023-04-04T16:17:45;25.77;;;8.90;;
6941;SDS011;3510;43.200;27.920;2023-04-04T16:20:23;28.60;;;9.57;;
6941;SDS011;3510;43.200;27.920;2023-04-04T16:22:50;28.10;;;8.60;;
6941;SDS011;3510;43.200;27.920;2023-04-04T16:25:20;20.80;;;8.17;;
6941;SDS011;3510;43.200;27.920;2023-04-04T16:27:48;34.47;;;9.00;;
6941;SDS011;3510;43.200;27.920;2023-04-04T16:30:15;20.13;;;11.47;;
6941;SDS011;3510;43.200;27.920;2023-04-04T16:32:42;32.07;;;11.70;;
6941;SDS011;3510;43.200;27.920;2023-04-04T16:35:10;20.83;;;12.30;;
6941;SDS011;3510;43.200;27.920;2023-04-04T16:37:38;26.43;;;10.73;;
6941;SDS011;3510;43.200;27.920;2023-04-04T16:40:06;21.40;;;11.27;;
6941;SDS011;3510;43.200;27.920;2023-04-04T16:42:33;22.23;;;10.87;;
6941;SDS011;3510;43.200;27.920;2023-04-04T16:45:07;17.30;;;9.87;;
6941;SDS011;3510;43.200;27.920;2023-04-04T16:47:37;11.80;;;8.00;;
6941;SDS011;3510;43.200;27.920;2023-04-04T16:50:05;17.70;;;8.73;;
6941;SDS011;3510;43.200;27.920;2023-04-04T16:55:09;12.07;;;6.73;;
6941;SDS011;3510;43.200;27.920;2023-04-04T16:57:38;15.40;;;5.97;;
6941;SDS011;3510;43.200;27.920;2023-04-04T17:03:11;9.30;;;4.03;;
6941;SDS011;3510;43.200;27.920;2023-04-04T17:05:39;5.70;;;3.57;;
6941;SDS011;3510;43.200;27.920;2023-04-04T17:08:14;9.57;;;4.57;;
6941;SDS011;3510;43.200;27.920;2023-04-04T17:13:30;6.20;;;4.50;;
6941;SDS011;3510;43.200;27.920;2023-04-04T17:16:04;7.90;;;4.43;;
6941;SDS011;3510;43.200;27.920;2023-04-04T17:21:30;5.90;;;3.10;;
6941;SDS011;3510;43.200;27.920;2023-04-04T17:23:57;6.40;;;3.67;;
6941;SDS011;3510;43.200;27.920;2023-04-04T17:26:24;5.47;;;3.47;;
6941;SDS011;3510;43.200;27.920;2023-04-04T17:29:07;8.47;;;4.17;;
6941;SDS011;3510;43.200;27.920;2023-04-04T17:31:38;5.53;;;3.23;;
6941;SDS011;3510;43.200;27.920;2023-04-04T17:37:06;6.13;;;3.13;;
6941;SDS011;3510;43.200;27.920;2023-04-04T17:39:42;7.63;;;5.20;;
6941;SDS011;3510;43.200;27.920;2023-04-04T17:42:21;5.20;;;3.40;;
6941;SDS011;3510;43.200;27.920;2023-04-04T17:52:35;13.57;;;3.87;;
6941;SDS011;3510;43.200;27.920;2023-04-04T17:55:02;6.23;;;4.80;;
6941;SDS011;3510;43.200;27.920;2023-04-04T17:57:32;8.70;;;3.67;;
6941;SDS011;3510;43.200;27.920;2023-04-04T18:00:15;6.17;;;3.43;;
6941;SDS011;3510;43.200;27.920;2023-04-04T18:02:57;6.17;;;3.93;;
6941;SDS011;3510;43.200;27.920;2023-04-04T18:05:38;7.20;;;3.50;;
6941;SDS011;3510;43.200;27.920;2023-04-04T18:08:23;3.27;;;2.97;;
6941;SDS011;3510;43.200;27.920;2023-04-04T18:10:51;3.80;;;3.50;;
6941;SDS011;3510;43.200;27.920;2023-04-04T18:13:20;4.00;;;3.70;;
6941;SDS011;3510;43.200;27.920;2023-04-04T18:15:49;6.77;;;3.70;;
6941;SDS011;3510;43.200;27.920;2023-04-04T18:18:30;4.00;;;3.60;;
6941;SDS011;3510;43.200;27.920;2023-04-04T18:20:59;4.20;;;3.53;;
6941;SDS011;3510;43.200;27.920;2023-04-04T18:26:41;3.70;;;2.43;;
6941;SDS011;3510;43.200;27.920;2023-04-04T18:29:23;2.73;;;2.53;;
6941;SDS011;3510;43.200;27.920;2023-04-04T18:31:54;5.03;;;3.20;;
6941;SDS011;3510;43.200;27.920;2023-04-04T18:40:10;3.77;;;3.00;;
6941;SDS011;3510;43.200;27.920;2023-04-04T18:42:38;2.10;;;1.90;;
6941;SDS011;3510;43.200;27.920;2023-04-04T18:45:20;3.10;;;2.17;;
6941;SDS011;3510;43.200;27.920;2023-04-04T18:48:00;1.90;;;1.80;;
6941;SDS011;3510;43.200;27.920;2023-04-04T18:50:41;3.33;;;2.93;;
6941;SDS011;3510;43.200;27.920;2023-04-04T18:53:23;4.27;;;3.97;;
6941;SDS011;3510;43.200;27.920;2023-04-04T19:09:23;3.33;;;3.03;;
6941;SDS011;3510;43.200;27.920;2023-04-04T19:12:02;2.80;;;2.50;;
6941;SDS011;3510;43.200;27.920;2023-04-04T19:14:44;3.35;;;2.35;;
6941;SDS011;3510;43.200;27.920;2023-04-04T19:17:21;2.40;;;2.30;;
6941;SDS011;3510;43.200;27.920;2023-04-04T19:19:49;2.10;;;2.00;;
6941;SDS011;3510;43.200;27.920;2023-04-04T19:22:30;2.60;;;2.40;;
6941;SDS011;3510;43.200;27.920;2023-04-04T19:25:14;3.05;;;2.40;;
6941;SDS011;3510;43.200;27.920;2023-04-04T22:10:52;2.83;;;2.63;;
6941;SDS011;3510;43.200;27.920;2023-04-04T22:13:23;3.08;;;2.78;;
6941;SDS011;3510;43.200;27.920;2023-04-04T22:15:55;3.40;;;3.20;;
6941;SDS011;3510;43.200;27.920;2023-04-04T22:18:24;2.85;;;2.75;;
6941;SDS011;3510;43.200;27.920;2023-04-04T22:20:54;2.55;;;2.45;;
6941;SDS011;3510;43.200;27.920;2023-04-04T22:23:22;2.60;;;2.50;;
6941;SDS011;3510;43.200;27.920;2023-04-04T22:25:49;2.65;;;2.45;;
6941;SDS011;3510;43.200;27.920;2023-04-04T22:28:16;2.55;;;2.45;;
6941;SDS011;3510;43.200;27.920;2023-04-04T22:30:50;3.20;;;2.72;;
6941;SDS011;3510;43.200;27.920;2023-04-04T22:33:16;3.10;;;2.90;;
6941;SDS011;3510;43.200;27.920;2023-04-04T22:35:43;3.20;;;3.00;;
6941;SDS011;3510;43.200;27.920;2023-04-04T22:38:10;3.30;;;2.70;;
6941;SDS011;3510;43.200;27.920;2023-04-04T22:40:38;3.47;;;3.17;;
6941;SDS011;3510;43.200;27.920;2023-04-04T22:43:05;3.17;;;2.97;;
6941;SDS011;3510;43.200;27.920;2023-04-04T22:45:33;3.10;;;2.90;;
6941;SDS011;3510;43.200;27.920;2023-04-04T22:48:03;3.00;;;2.88;;
6941;SDS011;3510;43.200;27.920;2023-04-04T22:50:30;2.42;;;2.33;;
6941;SDS011;3510;43.200;27.920;2023-04-04T22:52:59;2.83;;;2.65;;
6941;SDS011;3510;43.200;27.920;2023-04-04T22:55:27;2.47;;;2.38;;
6941;SDS011;3510;43.200;27.920;2023-04-04T22:57:55;2.90;;;2.80;;
6941;SDS011;3510;43.200;27.920;2023-04-04T23:00:22;2.72;;;2.53;;
6941;SDS011;3510;43.200;27.920;2023-04-04T23:02:50;2.37;;;2.27;;
6941;SDS011;3510;43.200;27.920;2023-04-04T23:05:18;2.63;;;2.53;;
6941;SDS011;3510;43.200;27.920;2023-04-04T23:07:44;2.37;;;2.27;;
6941;SDS011;3510;43.200;27.920;2023-04-04T23:10:12;2.47;;;2.27;;
6941;SDS011;3510;43.200;27.920;2023-04-04T23:12:40;2.10;;;2.00;;